FDX743 KEWR-KMEM
Flight info
| Callsign | FDX743 |
|---|---|
| Flight time | 2h 40m |
| Altitude | 36000 |
| Route | LANNA J48 CSN FANPO Q40 JAARE GQO TALLO VANZE3 |
| Aircraft | B763/H-VGDW/C |
Departure
| Time | 2026-05-08 00:36 |
|---|---|
| Airport | Newark Liberty International Airport (KEWR) |
Arrival
| Time | 2026-05-08 03:17 |
|---|---|
| Airport | Memphis International Airport (KMEM) |
| Time | Latitude | Longitude | Altitude | Speed | Heading |
|---|---|---|---|---|---|
| 2026-05-08 00:15 | 40.68003 | -74.18047 | 20 ft | 0 kts | 115° |
| 2026-05-08 00:28 | 40.68008 | -74.18059 | 20 ft | 2 kts | 126° |
| 2026-05-08 00:28 | 40.68018 | -74.18073 | 20 ft | 2 kts | 145° |
| 2026-05-08 00:28 | 40.68031 | -74.18082 | 20 ft | 2 kts | 162° |
| 2026-05-08 00:29 | 40.68046 | -74.18086 | 20 ft | 2 kts | 180° |
| 2026-05-08 00:29 | 40.68060 | -74.18084 | 20 ft | 2 kts | 197° |
| 2026-05-08 00:29 | 40.68069 | -74.18079 | 20 ft | 1 kts | 207° |
| 2026-05-08 00:29 | 40.68071 | -74.18079 | 20 ft | 0 kts | 207° |
| 2026-05-08 00:31 | 40.68070 | -74.18079 | 20 ft | 0 kts | 207° |
| 2026-05-08 00:31 | 40.68066 | -74.18081 | 20 ft | 1 kts | 207° |
| 2026-05-08 00:32 | 40.68036 | -74.18101 | 20 ft | 7 kts | 206° |
| 2026-05-08 00:32 | 40.67978 | -74.18137 | 20 ft | 9 kts | 205° |
| 2026-05-08 00:32 | 40.67915 | -74.18177 | 20 ft | 10 kts | 205° |
| 2026-05-08 00:32 | 40.67851 | -74.18217 | 20 ft | 10 kts | 205° |
| 2026-05-08 00:33 | 40.67783 | -74.18260 | 20 ft | 11 kts | 206° |
| 2026-05-08 00:33 | 40.67728 | -74.18256 | 20 ft | 7 kts | 131° |
| 2026-05-08 00:33 | 40.67701 | -74.18192 | 20 ft | 8 kts | 117° |
| 2026-05-08 00:33 | 40.67665 | -74.18134 | 20 ft | 8 kts | 139° |
| 2026-05-08 00:34 | 40.67626 | -74.18083 | 20 ft | 6 kts | 132° |
| 2026-05-08 00:34 | 40.67614 | -74.18065 | 20 ft | 0 kts | 131° |
| 2026-05-08 00:34 | 40.67607 | -74.18054 | 20 ft | 4 kts | 131° |
| 2026-05-08 00:35 | 40.67578 | -74.18009 | 21 ft | 8 kts | 126° |
| 2026-05-08 00:35 | 40.67563 | -74.17944 | 21 ft | 6 kts | 70° |
| 2026-05-08 00:35 | 40.67586 | -74.17918 | 21 ft | 0 kts | 28° |
| 2026-05-08 00:35 | 40.67603 | -74.17906 | 21 ft | 9 kts | 27° |
| 2026-05-08 00:36 | 40.67849 | -74.17750 | 20 ft | 71 kts | 26° |
| 2026-05-08 00:36 | 40.68502 | -74.17335 | 19 ft | 132 kts | 25° |
| 2026-05-08 00:36 | 40.69465 | -74.16717 | 169 ft | 172 kts | 29° |
| 2026-05-08 00:36 | 40.70461 | -74.15698 | 825 ft | 185 kts | 40° |
| 2026-05-08 00:37 | 40.71437 | -74.14515 | 1438 ft | 201 kts | 40° |
| 2026-05-08 00:37 | 40.72510 | -74.13251 | 2044 ft | 215 kts | 34° |
| 2026-05-08 00:37 | 40.73797 | -74.12160 | 2615 ft | 231 kts | 27° |
| 2026-05-08 00:38 | 40.76924 | -74.10497 | 3927 ft | 258 kts | 355° |
| 2026-05-08 00:38 | 40.78627 | -74.11174 | 4832 ft | 260 kts | 326° |
| 2026-05-08 00:38 | 40.79959 | -74.12872 | 5044 ft | 276 kts | 301° |
| 2026-05-08 00:38 | 40.80563 | -74.15202 | 5015 ft | 265 kts | 274° |
| 2026-05-08 00:39 | 40.80349 | -74.17576 | 5024 ft | 261 kts | 258° |
| 2026-05-08 00:39 | 40.79914 | -74.19918 | 5001 ft | 261 kts | 257° |
| 2026-05-08 00:39 | 40.79480 | -74.22240 | 5015 ft | 264 kts | 258° |
| 2026-05-08 00:39 | 40.79037 | -74.24618 | 5416 ft | 270 kts | 258° |
| 2026-05-08 00:40 | 40.78605 | -74.26970 | 6577 ft | 265 kts | 256° |
| 2026-05-08 00:40 | 40.77977 | -74.29215 | 7641 ft | 264 kts | 248° |
| 2026-05-08 00:40 | 40.77271 | -74.31420 | 8683 ft | 264 kts | 250° |
| 2026-05-08 00:40 | 40.76596 | -74.33629 | 9689 ft | 264 kts | 251° |
| 2026-05-08 00:41 | 40.75930 | -74.35838 | 10703 ft | 264 kts | 251° |
| 2026-05-08 00:41 | 40.75241 | -74.38155 | 11308 ft | 279 kts | 251° |
| 2026-05-08 00:41 | 40.74516 | -74.40602 | 11927 ft | 294 kts | 251° |
| 2026-05-08 00:41 | 40.73760 | -74.43155 | 12563 ft | 309 kts | 251° |
| 2026-05-08 00:42 | 40.72970 | -74.45827 | 13181 ft | 324 kts | 251° |
| 2026-05-08 00:42 | 40.72126 | -74.48679 | 13778 ft | 340 kts | 250° |
| 2026-05-08 00:42 | 40.71261 | -74.51601 | 14666 ft | 348 kts | 250° |
| 2026-05-08 00:42 | 40.70388 | -74.54544 | 15717 ft | 349 kts | 249° |
| 2026-05-08 00:43 | 40.69510 | -74.57507 | 16689 ft | 351 kts | 249° |
| 2026-05-08 00:43 | 40.68628 | -74.60475 | 17605 ft | 354 kts | 249° |
| 2026-05-08 00:43 | 40.67733 | -74.63490 | 18487 ft | 357 kts | 248° |
| 2026-05-08 00:43 | 40.66829 | -74.66522 | 19349 ft | 360 kts | 248° |
| 2026-05-08 00:44 | 40.65917 | -74.69581 | 20138 ft | 364 kts | 248° |
| 2026-05-08 00:44 | 40.65031 | -74.72552 | 20934 ft | 367 kts | 248° |
| 2026-05-08 00:44 | 40.64097 | -74.75681 | 21676 ft | 371 kts | 249° |
| 2026-05-08 00:44 | 40.63155 | -74.78832 | 22441 ft | 374 kts | 248° |
| 2026-05-08 00:45 | 40.62262 | -74.81817 | 23134 ft | 377 kts | 249° |
| 2026-05-08 00:45 | 40.61308 | -74.85003 | 23856 ft | 379 kts | 249° |
| 2026-05-08 00:45 | 40.60331 | -74.88257 | 24544 ft | 383 kts | 249° |
| 2026-05-08 00:45 | 40.59422 | -74.91283 | 25153 ft | 386 kts | 249° |
| 2026-05-08 00:46 | 40.58439 | -74.94553 | 25883 ft | 387 kts | 249° |
| 2026-05-08 00:46 | 40.57449 | -74.97843 | 26539 ft | 390 kts | 250° |
| 2026-05-08 00:46 | 40.56399 | -75.01157 | 27157 ft | 393 kts | 246° |
| 2026-05-08 00:46 | 40.54960 | -75.04238 | 27704 ft | 401 kts | 237° |
| 2026-05-08 00:47 | 40.53187 | -75.07076 | 28290 ft | 404 kts | 235° |
| 2026-05-08 00:47 | 40.51414 | -75.09934 | 28919 ft | 405 kts | 236° |
| 2026-05-08 00:47 | 40.49654 | -75.12738 | 29604 ft | 403 kts | 236° |
| 2026-05-08 00:47 | 40.47887 | -75.15551 | 30374 ft | 399 kts | 236° |
| 2026-05-08 00:48 | 40.46130 | -75.18345 | 30971 ft | 397 kts | 236° |
| 2026-05-08 00:48 | 40.44390 | -75.21106 | 31500 ft | 396 kts | 236° |
| 2026-05-08 00:48 | 40.42643 | -75.23872 | 32080 ft | 393 kts | 236° |
| 2026-05-08 00:48 | 40.40900 | -75.26627 | 32573 ft | 392 kts | 236° |
| 2026-05-08 00:49 | 40.39181 | -75.29345 | 33046 ft | 390 kts | 236° |
| 2026-05-08 00:49 | 40.37434 | -75.32102 | 33481 ft | 390 kts | 237° |
| 2026-05-08 00:49 | 40.35732 | -75.34785 | 33879 ft | 389 kts | 236° |
| 2026-05-08 00:49 | 40.34003 | -75.37509 | 34375 ft | 384 kts | 237° |
| 2026-05-08 00:50 | 40.32316 | -75.40163 | 34687 ft | 384 kts | 237° |
| 2026-05-08 00:50 | 40.30618 | -75.42834 | 35142 ft | 381 kts | 236° |
| 2026-05-08 00:50 | 40.28916 | -75.45508 | 35382 ft | 382 kts | 237° |
| 2026-05-08 00:50 | 40.27212 | -75.48182 | 35773 ft | 381 kts | 236° |
| 2026-05-08 00:51 | 40.25536 | -75.50808 | 35860 ft | 378 kts | 236° |
| 2026-05-08 00:51 | 40.22209 | -75.56036 | 35869 ft | 374 kts | 238° |
| 2026-05-08 00:52 | 40.19329 | -75.61705 | 35874 ft | 375 kts | 242° |
| 2026-05-08 00:52 | 40.16478 | -75.67410 | 35875 ft | 375 kts | 241° |
| 2026-05-08 00:53 | 40.13609 | -75.73126 | 35871 ft | 375 kts | 242° |
| 2026-05-08 00:53 | 40.10751 | -75.78802 | 35884 ft | 375 kts | 241° |
| 2026-05-08 00:54 | 40.08045 | -75.84159 | 35871 ft | 374 kts | 242° |
| 2026-05-08 00:54 | 40.05166 | -75.89848 | 35877 ft | 375 kts | 241° |
| 2026-05-08 00:55 | 40.02300 | -75.95499 | 35886 ft | 376 kts | 241° |
| 2026-05-08 00:55 | 39.99402 | -76.01202 | 35881 ft | 375 kts | 242° |
| 2026-05-08 00:56 | 39.96520 | -76.06863 | 35873 ft | 375 kts | 242° |
| 2026-05-08 00:56 | 39.93642 | -76.12505 | 35870 ft | 376 kts | 241° |
| 2026-05-08 00:57 | 39.90758 | -76.18151 | 35877 ft | 376 kts | 241° |
| 2026-05-08 00:57 | 39.87864 | -76.23805 | 35878 ft | 375 kts | 242° |
| 2026-05-08 00:58 | 39.85058 | -76.29279 | 35875 ft | 374 kts | 242° |
| 2026-05-08 00:58 | 39.82414 | -76.34429 | 35872 ft | 375 kts | 241° |
| 2026-05-08 00:59 | 39.79509 | -76.40077 | 35876 ft | 376 kts | 242° |
| 2026-05-08 00:59 | 39.76640 | -76.45642 | 36103 ft | 374 kts | 242° |
| 2026-05-08 00:59 | 39.75185 | -76.48460 | 35859 ft | 377 kts | 242° |
| 2026-05-08 01:00 | 39.73735 | -76.51268 | 35886 ft | 371 kts | 242° |
| 2026-05-08 01:00 | 39.70876 | -76.56796 | 35951 ft | 372 kts | 242° |
| 2026-05-08 01:01 | 39.67961 | -76.62427 | 35882 ft | 375 kts | 242° |
| 2026-05-08 01:01 | 39.65056 | -76.68021 | 35900 ft | 374 kts | 241° |
| 2026-05-08 01:02 | 39.62247 | -76.73423 | 35890 ft | 374 kts | 242° |
| 2026-05-08 01:02 | 39.59352 | -76.78983 | 35894 ft | 375 kts | 242° |
| 2026-05-08 01:03 | 39.56425 | -76.84596 | 35894 ft | 374 kts | 242° |
| 2026-05-08 01:03 | 39.53670 | -76.89865 | 35895 ft | 374 kts | 242° |
| 2026-05-08 01:04 | 39.50726 | -76.95483 | 35894 ft | 375 kts | 241° |
| 2026-05-08 01:04 | 39.46999 | -77.00351 | 35907 ft | 386 kts | 228° |
| 2026-05-08 01:05 | 39.42862 | -77.04775 | 35900 ft | 388 kts | 229° |
| 2026-05-08 01:05 | 39.38685 | -77.09202 | 35896 ft | 388 kts | 228° |
| 2026-05-08 01:06 | 39.34537 | -77.13573 | 35893 ft | 387 kts | 229° |
| 2026-05-08 01:06 | 39.30339 | -77.17984 | 35903 ft | 389 kts | 229° |
| 2026-05-08 01:07 | 39.26139 | -77.22383 | 35903 ft | 389 kts | 229° |
| 2026-05-08 01:07 | 39.21986 | -77.26726 | 35901 ft | 386 kts | 229° |
| 2026-05-08 01:08 | 39.17805 | -77.31092 | 35907 ft | 387 kts | 229° |
| 2026-05-08 01:08 | 39.13604 | -77.35471 | 35904 ft | 388 kts | 229° |
| 2026-05-08 01:09 | 39.09438 | -77.39806 | 35899 ft | 387 kts | 229° |
| 2026-05-08 01:09 | 39.05266 | -77.44140 | 35904 ft | 387 kts | 229° |
| 2026-05-08 01:10 | 39.01073 | -77.48486 | 35898 ft | 386 kts | 229° |
| 2026-05-08 01:10 | 38.96906 | -77.52805 | 35893 ft | 388 kts | 229° |
| 2026-05-08 01:11 | 38.92715 | -77.57137 | 35896 ft | 386 kts | 229° |
| 2026-05-08 01:11 | 38.88563 | -77.61423 | 35903 ft | 385 kts | 229° |
| 2026-05-08 01:12 | 38.84386 | -77.65729 | 35910 ft | 386 kts | 229° |
| 2026-05-08 01:12 | 38.80186 | -77.70055 | 35919 ft | 388 kts | 228° |
| 2026-05-08 01:13 | 38.76004 | -77.74350 | 35924 ft | 384 kts | 229° |
| 2026-05-08 01:13 | 38.71844 | -77.78617 | 35923 ft | 382 kts | 229° |
| 2026-05-08 01:14 | 38.67742 | -77.82821 | 35927 ft | 383 kts | 229° |
| 2026-05-08 01:14 | 38.63751 | -77.87226 | 35930 ft | 373 kts | 238° |
| 2026-05-08 01:15 | 38.60605 | -77.92458 | 35930 ft | 369 kts | 240° |
| 2026-05-08 01:15 | 38.57523 | -77.97649 | 35934 ft | 368 kts | 240° |
| 2026-05-08 01:16 | 38.54427 | -78.02855 | 35936 ft | 367 kts | 241° |
| 2026-05-08 01:16 | 38.51359 | -78.08006 | 35933 ft | 367 kts | 240° |
| 2026-05-08 01:17 | 38.48267 | -78.13191 | 35938 ft | 367 kts | 241° |
| 2026-05-08 01:17 | 38.45193 | -78.18336 | 35934 ft | 367 kts | 241° |
| 2026-05-08 01:18 | 38.42091 | -78.23477 | 35927 ft | 367 kts | 242° |
| 2026-05-08 01:18 | 38.39417 | -78.28944 | 35925 ft | 362 kts | 246° |
| 2026-05-08 01:19 | 38.36815 | -78.34373 | 35930 ft | 360 kts | 246° |
| 2026-05-08 01:19 | 38.34195 | -78.39795 | 35930 ft | 360 kts | 246° |
| 2026-05-08 01:20 | 38.31566 | -78.45195 | 35931 ft | 363 kts | 246° |
| 2026-05-08 01:20 | 38.28921 | -78.50607 | 35924 ft | 358 kts | 245° |
| 2026-05-08 01:21 | 38.26292 | -78.55971 | 35931 ft | 359 kts | 246° |
| 2026-05-08 01:21 | 38.23638 | -78.61378 | 35932 ft | 361 kts | 245° |
| 2026-05-08 01:22 | 38.20993 | -78.66755 | 35949 ft | 358 kts | 245° |
| 2026-05-08 01:22 | 38.18363 | -78.72089 | 35951 ft | 359 kts | 245° |
| 2026-05-08 01:23 | 38.15715 | -78.77454 | 35951 ft | 358 kts | 245° |
| 2026-05-08 01:23 | 38.13073 | -78.82798 | 35958 ft | 357 kts | 246° |
| 2026-05-08 01:24 | 38.10439 | -78.88119 | 35686 ft | 357 kts | 245° |
| 2026-05-08 01:24 | 38.09133 | -78.90747 | 35974 ft | 353 kts | 245° |
| 2026-05-08 01:24 | 38.07826 | -78.93386 | 35918 ft | 359 kts | 245° |
| 2026-05-08 01:25 | 38.05155 | -78.98761 | 35925 ft | 359 kts | 245° |
| 2026-05-08 01:25 | 38.02517 | -79.04059 | 35925 ft | 354 kts | 245° |
| 2026-05-08 01:26 | 37.99903 | -79.09304 | 35938 ft | 357 kts | 246° |
| 2026-05-08 01:26 | 37.97233 | -79.14652 | 35933 ft | 357 kts | 246° |
| 2026-05-08 01:27 | 37.94613 | -79.19888 | 35941 ft | 353 kts | 245° |
| 2026-05-08 01:27 | 37.93301 | -79.22510 | 36182 ft | 355 kts | 246° |
| 2026-05-08 01:27 | 37.91975 | -79.25159 | 35918 ft | 360 kts | 245° |
| 2026-05-08 01:28 | 37.89336 | -79.30414 | 35939 ft | 351 kts | 246° |
| 2026-05-08 01:28 | 37.86714 | -79.35623 | 35943 ft | 353 kts | 246° |
| 2026-05-08 01:29 | 37.84052 | -79.40894 | 35939 ft | 354 kts | 246° |
| 2026-05-08 01:29 | 37.81961 | -79.45022 | 35939 ft | 351 kts | 245° |
| 2026-05-08 01:30 | 37.79317 | -79.50236 | 35938 ft | 352 kts | 246° |
| 2026-05-08 01:30 | 37.76723 | -79.55351 | 35944 ft | 353 kts | 246° |
| 2026-05-08 01:31 | 37.74103 | -79.60505 | 35941 ft | 352 kts | 245° |
| 2026-05-08 01:31 | 37.71503 | -79.65605 | 35948 ft | 349 kts | 245° |
| 2026-05-08 01:32 | 37.68859 | -79.70795 | 35976 ft | 353 kts | 246° |
| 2026-05-08 01:32 | 37.66202 | -79.75994 | 35970 ft | 354 kts | 246° |
| 2026-05-08 01:33 | 37.63541 | -79.81191 | 35971 ft | 352 kts | 245° |
| 2026-05-08 01:33 | 37.60909 | -79.86332 | 35975 ft | 349 kts | 245° |
| 2026-05-08 01:34 | 37.58284 | -79.91447 | 35978 ft | 351 kts | 246° |
| 2026-05-08 01:34 | 37.55628 | -79.96614 | 35979 ft | 351 kts | 246° |
| 2026-05-08 01:35 | 37.52974 | -80.01765 | 35976 ft | 350 kts | 246° |
| 2026-05-08 01:35 | 37.50331 | -80.06895 | 35971 ft | 350 kts | 246° |
| 2026-05-08 01:36 | 37.47691 | -80.12007 | 35974 ft | 349 kts | 246° |
| 2026-05-08 01:36 | 37.45039 | -80.17136 | 35974 ft | 350 kts | 245° |
| 2026-05-08 01:37 | 37.42400 | -80.22224 | 35977 ft | 348 kts | 247° |
| 2026-05-08 01:37 | 37.39750 | -80.27337 | 35981 ft | 350 kts | 246° |
| 2026-05-08 01:38 | 37.37104 | -80.32430 | 35982 ft | 349 kts | 246° |
| 2026-05-08 01:38 | 37.34470 | -80.37485 | 35981 ft | 345 kts | 246° |
| 2026-05-08 01:39 | 37.31814 | -80.42592 | 35991 ft | 349 kts | 245° |
| 2026-05-08 01:39 | 37.29177 | -80.47639 | 35993 ft | 348 kts | 246° |
| 2026-05-08 01:40 | 37.26570 | -80.52763 | 35993 ft | 346 kts | 249° |
| 2026-05-08 01:40 | 37.24101 | -80.57928 | 35987 ft | 345 kts | 248° |
| 2026-05-08 01:41 | 37.21637 | -80.63057 | 35985 ft | 344 kts | 249° |
| 2026-05-08 01:41 | 37.19165 | -80.68201 | 36017 ft | 346 kts | 248° |
| 2026-05-08 01:42 | 37.16684 | -80.73350 | 36007 ft | 346 kts | 248° |
| 2026-05-08 01:42 | 37.14428 | -80.78026 | 36004 ft | 343 kts | 247° |
| 2026-05-08 01:43 | 37.11973 | -80.83104 | 36004 ft | 341 kts | 248° |
| 2026-05-08 01:43 | 37.09753 | -80.87695 | 36001 ft | 344 kts | 247° |
| 2026-05-08 01:44 | 37.07278 | -80.92797 | 36008 ft | 344 kts | 248° |
| 2026-05-08 01:44 | 37.04798 | -80.97910 | 36008 ft | 342 kts | 248° |
| 2026-05-08 01:45 | 37.02335 | -81.02977 | 36002 ft | 342 kts | 248° |
| 2026-05-08 01:45 | 36.99866 | -81.08048 | 35998 ft | 342 kts | 247° |
| 2026-05-08 01:46 | 36.97394 | -81.13114 | 36006 ft | 343 kts | 248° |
| 2026-05-08 01:46 | 36.94929 | -81.18160 | 36000 ft | 340 kts | 248° |
| 2026-05-08 01:47 | 36.92457 | -81.23220 | 36011 ft | 343 kts | 247° |
| 2026-05-08 01:47 | 36.89990 | -81.28257 | 36009 ft | 342 kts | 248° |
| 2026-05-08 01:48 | 36.86356 | -81.35659 | 36003 ft | 340 kts | 248° |
| 2026-05-08 01:48 | 36.83888 | -81.40680 | 35997 ft | 342 kts | 248° |
| 2026-05-08 01:49 | 36.81805 | -81.44916 | 36003 ft | 343 kts | 247° |
| 2026-05-08 01:49 | 36.79295 | -81.50002 | 35998 ft | 340 kts | 248° |
| 2026-05-08 01:50 | 36.76976 | -81.54697 | 35996 ft | 342 kts | 248° |
| 2026-05-08 01:50 | 36.74627 | -81.59451 | 35990 ft | 344 kts | 248° |
| 2026-05-08 01:51 | 36.72474 | -81.63760 | 35991 ft | 342 kts | 247° |
| 2026-05-08 01:51 | 36.70051 | -81.68485 | 36021 ft | 343 kts | 246° |
| 2026-05-08 01:52 | 36.67581 | -81.73305 | 36021 ft | 345 kts | 246° |
| 2026-05-08 01:52 | 36.65063 | -81.78207 | 36020 ft | 341 kts | 246° |
| 2026-05-08 01:53 | 36.62643 | -81.82916 | 36023 ft | 343 kts | 246° |
| 2026-05-08 01:53 | 36.60066 | -81.87924 | 36020 ft | 343 kts | 246° |
| 2026-05-08 01:54 | 36.57503 | -81.92892 | 36024 ft | 343 kts | 246° |
| 2026-05-08 01:54 | 36.54915 | -81.97903 | 36027 ft | 343 kts | 246° |
| 2026-05-08 01:55 | 36.52336 | -82.02891 | 36026 ft | 343 kts | 246° |
| 2026-05-08 01:55 | 36.49766 | -82.07853 | 36024 ft | 342 kts | 246° |
| 2026-05-08 01:56 | 36.47199 | -82.12800 | 36027 ft | 342 kts | 247° |
| 2026-05-08 01:56 | 36.44607 | -82.17793 | 36021 ft | 342 kts | 246° |
| 2026-05-08 01:57 | 36.42037 | -82.22733 | 36026 ft | 343 kts | 246° |
| 2026-05-08 01:57 | 36.39458 | -82.27684 | 36021 ft | 343 kts | 246° |
| 2026-05-08 01:58 | 36.36869 | -82.32647 | 36022 ft | 344 kts | 246° |
| 2026-05-08 01:58 | 36.34262 | -82.37635 | 36020 ft | 343 kts | 246° |
| 2026-05-08 01:59 | 36.31695 | -82.42542 | 36018 ft | 341 kts | 246° |
| 2026-05-08 01:59 | 36.29095 | -82.47506 | 36022 ft | 343 kts | 246° |
| 2026-05-08 02:00 | 36.26498 | -82.52455 | 36020 ft | 342 kts | 246° |
| 2026-05-08 02:00 | 36.23922 | -82.57355 | 36009 ft | 342 kts | 246° |
| 2026-05-08 02:01 | 36.21323 | -82.62294 | 36008 ft | 343 kts | 247° |
| 2026-05-08 02:01 | 36.18729 | -82.67217 | 36043 ft | 343 kts | 245° |
| 2026-05-08 02:02 | 36.16251 | -82.71912 | 36036 ft | 343 kts | 246° |
| 2026-05-08 02:02 | 36.13703 | -82.76735 | 36029 ft | 343 kts | 245° |
| 2026-05-08 02:03 | 36.11298 | -82.81274 | 36029 ft | 342 kts | 246° |
| 2026-05-08 02:03 | 36.08686 | -82.86208 | 36032 ft | 342 kts | 245° |
| 2026-05-08 02:04 | 36.06082 | -82.91114 | 36027 ft | 343 kts | 246° |
| 2026-05-08 02:04 | 36.03475 | -82.96018 | 36021 ft | 342 kts | 246° |
| 2026-05-08 02:05 | 36.00855 | -83.00942 | 36028 ft | 344 kts | 246° |
| 2026-05-08 02:05 | 35.98232 | -83.05863 | 36027 ft | 342 kts | 245° |
| 2026-05-08 02:06 | 35.95626 | -83.10745 | 36022 ft | 342 kts | 246° |
| 2026-05-08 02:06 | 35.92999 | -83.15660 | 36023 ft | 345 kts | 246° |
| 2026-05-08 02:07 | 35.90430 | -83.20654 | 36017 ft | 343 kts | 247° |
| 2026-05-08 02:07 | 35.88016 | -83.25563 | 36022 ft | 343 kts | 248° |
| 2026-05-08 02:08 | 35.85554 | -83.30554 | 36016 ft | 341 kts | 248° |
| 2026-05-08 02:08 | 35.83546 | -83.34626 | 36018 ft | 343 kts | 248° |
| 2026-05-08 02:09 | 35.81060 | -83.39655 | 36017 ft | 345 kts | 247° |
| 2026-05-08 02:09 | 35.78986 | -83.43840 | 36008 ft | 344 kts | 247° |
| 2026-05-08 02:10 | 35.76513 | -83.48824 | 36011 ft | 342 kts | 248° |
| 2026-05-08 02:10 | 35.74757 | -83.52370 | 36012 ft | 344 kts | 247° |
| 2026-05-08 02:11 | 35.72376 | -83.57317 | 36012 ft | 342 kts | 249° |
| 2026-05-08 02:11 | 35.69993 | -83.62370 | 36009 ft | 343 kts | 249° |
| 2026-05-08 02:12 | 35.67661 | -83.67306 | 36048 ft | 344 kts | 247° |
| 2026-05-08 02:12 | 35.65381 | -83.72121 | 36038 ft | 344 kts | 247° |
| 2026-05-08 02:13 | 35.63036 | -83.77068 | 36039 ft | 342 kts | 248° |
| 2026-05-08 02:13 | 35.60615 | -83.82172 | 36045 ft | 344 kts | 248° |
| 2026-05-08 02:14 | 35.58220 | -83.87202 | 36044 ft | 342 kts | 248° |
| 2026-05-08 02:14 | 35.55808 | -83.92276 | 36039 ft | 346 kts | 247° |
| 2026-05-08 02:15 | 35.53376 | -83.97372 | 36049 ft | 346 kts | 247° |
| 2026-05-08 02:15 | 35.50977 | -84.02393 | 36049 ft | 342 kts | 247° |
| 2026-05-08 02:16 | 35.48563 | -84.07446 | 36047 ft | 345 kts | 248° |
| 2026-05-08 02:16 | 35.46133 | -84.12517 | 36045 ft | 347 kts | 247° |
| 2026-05-08 02:17 | 35.43696 | -84.17596 | 36039 ft | 345 kts | 248° |
| 2026-05-08 02:17 | 35.41268 | -84.22652 | 36037 ft | 345 kts | 248° |
| 2026-05-08 02:18 | 35.38829 | -84.27725 | 36040 ft | 347 kts | 247° |
| 2026-05-08 02:18 | 35.36390 | -84.32788 | 36036 ft | 347 kts | 247° |
| 2026-05-08 02:19 | 35.33931 | -84.37882 | 36041 ft | 347 kts | 247° |
| 2026-05-08 02:19 | 35.31484 | -84.42947 | 36038 ft | 348 kts | 248° |
| 2026-05-08 02:20 | 35.29011 | -84.48057 | 36038 ft | 348 kts | 247° |
| 2026-05-08 02:20 | 35.26534 | -84.53168 | 36032 ft | 350 kts | 247° |
| 2026-05-08 02:21 | 35.24062 | -84.58261 | 36027 ft | 350 kts | 247° |
| 2026-05-08 02:21 | 35.21577 | -84.63374 | 36025 ft | 347 kts | 247° |
| 2026-05-08 02:22 | 35.19188 | -84.68282 | 36052 ft | 352 kts | 247° |
| 2026-05-08 02:22 | 35.16672 | -84.73444 | 36038 ft | 353 kts | 246° |
| 2026-05-08 02:23 | 35.14390 | -84.78117 | 36042 ft | 351 kts | 248° |
| 2026-05-08 02:23 | 35.11896 | -84.83218 | 36035 ft | 350 kts | 246° |
| 2026-05-08 02:24 | 35.09432 | -84.88256 | 36037 ft | 351 kts | 246° |
| 2026-05-08 02:24 | 35.06917 | -84.93382 | 36032 ft | 351 kts | 247° |
| 2026-05-08 02:25 | 35.04415 | -84.98480 | 36040 ft | 352 kts | 246° |
| 2026-05-08 02:25 | 35.01904 | -85.03584 | 36047 ft | 351 kts | 247° |
| 2026-05-08 02:26 | 34.99373 | -85.08726 | 36046 ft | 354 kts | 246° |
| 2026-05-08 02:26 | 34.96909 | -85.13882 | 36030 ft | 348 kts | 251° |
| 2026-05-08 02:27 | 34.95797 | -85.19481 | 36046 ft | 342 kts | 264° |
| 2026-05-08 02:27 | 34.95190 | -85.25231 | 36037 ft | 344 kts | 264° |
| 2026-05-08 02:28 | 34.94598 | -85.30969 | 36038 ft | 342 kts | 265° |
| 2026-05-08 02:28 | 34.94015 | -85.36700 | 36044 ft | 342 kts | 264° |
| 2026-05-08 02:29 | 34.93435 | -85.42422 | 36046 ft | 342 kts | 264° |
| 2026-05-08 02:29 | 34.92857 | -85.48144 | 36043 ft | 343 kts | 264° |
| 2026-05-08 02:30 | 34.92271 | -85.53909 | 36047 ft | 343 kts | 264° |
| 2026-05-08 02:30 | 34.91685 | -85.59664 | 36045 ft | 342 kts | 265° |
| 2026-05-08 02:31 | 34.91109 | -85.65288 | 36047 ft | 344 kts | 263° |
| 2026-05-08 02:31 | 34.90516 | -85.71070 | 36071 ft | 345 kts | 263° |
| 2026-05-08 02:32 | 34.89964 | -85.76410 | 36071 ft | 344 kts | 264° |
| 2026-05-08 02:32 | 34.89386 | -85.81978 | 36076 ft | 344 kts | 263° |
| 2026-05-08 02:33 | 34.88776 | -85.87837 | 36074 ft | 345 kts | 264° |
| 2026-05-08 02:33 | 34.88172 | -85.93600 | 36074 ft | 344 kts | 264° |
| 2026-05-08 02:34 | 34.87577 | -85.99272 | 36075 ft | 342 kts | 263° |
| 2026-05-08 02:34 | 34.86970 | -86.05016 | 36071 ft | 343 kts | 263° |
| 2026-05-08 02:35 | 34.86395 | -86.10433 | 36072 ft | 345 kts | 264° |
| 2026-05-08 02:35 | 34.85782 | -86.16176 | 36070 ft | 342 kts | 263° |
| 2026-05-08 02:36 | 34.85213 | -86.21497 | 36067 ft | 343 kts | 264° |
| 2026-05-08 02:36 | 34.84594 | -86.27277 | 36064 ft | 344 kts | 264° |
| 2026-05-08 02:37 | 34.83974 | -86.32998 | 36060 ft | 343 kts | 263° |
| 2026-05-08 02:37 | 34.83347 | -86.38773 | 36056 ft | 344 kts | 264° |
| 2026-05-08 02:38 | 34.82721 | -86.44531 | 36062 ft | 343 kts | 264° |
| 2026-05-08 02:38 | 34.82095 | -86.50251 | 36056 ft | 343 kts | 264° |
| 2026-05-08 02:39 | 34.81461 | -86.56003 | 36050 ft | 343 kts | 264° |
| 2026-05-08 02:39 | 34.80829 | -86.61743 | 36052 ft | 344 kts | 264° |
| 2026-05-08 02:40 | 34.80190 | -86.67502 | 36089 ft | 346 kts | 264° |
| 2026-05-08 02:40 | 34.79546 | -86.73278 | 36077 ft | 344 kts | 264° |
| 2026-05-08 02:41 | 34.78916 | -86.78899 | 36073 ft | 345 kts | 264° |
| 2026-05-08 02:41 | 34.78271 | -86.84660 | 36073 ft | 344 kts | 264° |
| 2026-05-08 02:42 | 34.77620 | -86.90427 | 36072 ft | 346 kts | 263° |
| 2026-05-08 02:42 | 34.76967 | -86.96182 | 36068 ft | 344 kts | 263° |
| 2026-05-08 02:43 | 34.76311 | -87.01943 | 36065 ft | 346 kts | 264° |
| 2026-05-08 02:43 | 34.75645 | -87.07768 | 36054 ft | 347 kts | 263° |
| 2026-05-08 02:44 | 34.75311 | -87.10679 | 35496 ft | 354 kts | 263° |
| 2026-05-08 02:44 | 34.74973 | -87.13639 | 34885 ft | 351 kts | 262° |
| 2026-05-08 02:44 | 34.74637 | -87.16550 | 34407 ft | 353 kts | 262° |
| 2026-05-08 02:44 | 34.74298 | -87.19495 | 33981 ft | 354 kts | 262° |
| 2026-05-08 02:45 | 34.73954 | -87.22463 | 33550 ft | 355 kts | 262° |
| 2026-05-08 02:45 | 34.73605 | -87.25459 | 33214 ft | 356 kts | 262° |
| 2026-05-08 02:45 | 34.73264 | -87.28408 | 32901 ft | 358 kts | 262° |
| 2026-05-08 02:45 | 34.72915 | -87.31398 | 32586 ft | 359 kts | 262° |
| 2026-05-08 02:46 | 34.72561 | -87.34430 | 32265 ft | 359 kts | 262° |
| 2026-05-08 02:46 | 34.72212 | -87.37394 | 31943 ft | 356 kts | 263° |
| 2026-05-08 02:46 | 34.71864 | -87.40368 | 31616 ft | 354 kts | 262° |
| 2026-05-08 02:46 | 34.71516 | -87.43332 | 31287 ft | 352 kts | 263° |
| 2026-05-08 02:47 | 34.71170 | -87.46261 | 30961 ft | 352 kts | 263° |
| 2026-05-08 02:47 | 34.70828 | -87.49165 | 30637 ft | 350 kts | 263° |
| 2026-05-08 02:47 | 34.70521 | -87.52108 | 30306 ft | 348 kts | 266° |
| 2026-05-08 02:47 | 34.70405 | -87.55019 | 30007 ft | 345 kts | 268° |
| 2026-05-08 02:48 | 34.70278 | -87.57899 | 29730 ft | 343 kts | 268° |
| 2026-05-08 02:48 | 34.70152 | -87.60825 | 29449 ft | 343 kts | 268° |
| 2026-05-08 02:48 | 34.70025 | -87.63692 | 29176 ft | 344 kts | 267° |
| 2026-05-08 02:48 | 34.69900 | -87.66501 | 28937 ft | 343 kts | 266° |
| 2026-05-08 02:49 | 34.69767 | -87.69404 | 28699 ft | 342 kts | 266° |
| 2026-05-08 02:49 | 34.69649 | -87.72012 | 28486 ft | 342 kts | 266° |
| 2026-05-08 02:49 | 34.69516 | -87.74872 | 28261 ft | 341 kts | 267° |
| 2026-05-08 02:49 | 34.69383 | -87.77753 | 28028 ft | 340 kts | 267° |
| 2026-05-08 02:50 | 34.69272 | -87.80128 | 27821 ft | 340 kts | 267° |
| 2026-05-08 02:50 | 34.69157 | -87.82599 | 27619 ft | 342 kts | 267° |
| 2026-05-08 02:50 | 34.69022 | -87.85480 | 27379 ft | 342 kts | 267° |
| 2026-05-08 02:50 | 34.68893 | -87.88210 | 27148 ft | 340 kts | 266° |
| 2026-05-08 02:51 | 34.68753 | -87.91126 | 26905 ft | 340 kts | 267° |
| 2026-05-08 02:51 | 34.68617 | -87.93973 | 26665 ft | 339 kts | 267° |
| 2026-05-08 02:51 | 34.68479 | -87.96854 | 26429 ft | 339 kts | 267° |
| 2026-05-08 02:51 | 34.68340 | -87.99703 | 26184 ft | 339 kts | 267° |
| 2026-05-08 02:52 | 34.68202 | -88.02563 | 25937 ft | 339 kts | 267° |
| 2026-05-08 02:52 | 34.68064 | -88.05389 | 25692 ft | 338 kts | 267° |
| 2026-05-08 02:52 | 34.67925 | -88.08237 | 25429 ft | 339 kts | 267° |
| 2026-05-08 02:52 | 34.67784 | -88.11088 | 25126 ft | 339 kts | 267° |
| 2026-05-08 02:53 | 34.67644 | -88.13945 | 24805 ft | 340 kts | 267° |
| 2026-05-08 02:53 | 34.67500 | -88.16801 | 24433 ft | 340 kts | 268° |
| 2026-05-08 02:53 | 34.67359 | -88.19657 | 24075 ft | 338 kts | 267° |
| 2026-05-08 02:53 | 34.67215 | -88.22491 | 23714 ft | 336 kts | 267° |
| 2026-05-08 02:54 | 34.67074 | -88.25314 | 23360 ft | 335 kts | 266° |
| 2026-05-08 02:54 | 34.66930 | -88.28151 | 23000 ft | 336 kts | 267° |
| 2026-05-08 02:54 | 34.66786 | -88.30972 | 22636 ft | 337 kts | 267° |
| 2026-05-08 02:54 | 34.66642 | -88.33796 | 22278 ft | 335 kts | 266° |
| 2026-05-08 02:55 | 34.66497 | -88.36601 | 21917 ft | 333 kts | 268° |
| 2026-05-08 02:55 | 34.66208 | -88.42184 | 21189 ft | 331 kts | 267° |
| 2026-05-08 02:55 | 34.66063 | -88.44981 | 20820 ft | 330 kts | 267° |
| 2026-05-08 02:56 | 34.65917 | -88.47766 | 20455 ft | 331 kts | 267° |
| 2026-05-08 02:56 | 34.65772 | -88.50538 | 20091 ft | 331 kts | 268° |
| 2026-05-08 02:56 | 34.65624 | -88.53329 | 19718 ft | 328 kts | 268° |
| 2026-05-08 02:56 | 34.65480 | -88.56044 | 19353 ft | 327 kts | 268° |
| 2026-05-08 02:57 | 34.65332 | -88.58825 | 18979 ft | 327 kts | 268° |
| 2026-05-08 02:57 | 34.65186 | -88.61568 | 18605 ft | 326 kts | 268° |
| 2026-05-08 02:57 | 34.65039 | -88.64295 | 18236 ft | 325 kts | 268° |
| 2026-05-08 02:57 | 34.64893 | -88.67030 | 17873 ft | 325 kts | 268° |
| 2026-05-08 02:58 | 34.64745 | -88.69747 | 17516 ft | 322 kts | 268° |
| 2026-05-08 02:58 | 34.64609 | -88.72256 | 17192 ft | 324 kts | 268° |
| 2026-05-08 02:58 | 34.64462 | -88.74962 | 16840 ft | 321 kts | 268° |
| 2026-05-08 02:58 | 34.64336 | -88.77263 | 16530 ft | 322 kts | 268° |
| 2026-05-08 02:59 | 34.64185 | -88.80012 | 16173 ft | 320 kts | 268° |
| 2026-05-08 02:59 | 34.64036 | -88.82700 | 15817 ft | 321 kts | 268° |
| 2026-05-08 02:59 | 34.63909 | -88.85004 | 15505 ft | 319 kts | 268° |
| 2026-05-08 02:59 | 34.63759 | -88.87701 | 15145 ft | 318 kts | 268° |
| 2026-05-08 03:00 | 34.63800 | -88.90326 | 14785 ft | 315 kts | 280° |
| 2026-05-08 03:00 | 34.64346 | -88.92908 | 14440 ft | 310 kts | 284° |
| 2026-05-08 03:00 | 34.64873 | -88.95388 | 14071 ft | 304 kts | 284° |
| 2026-05-08 03:00 | 34.65414 | -88.97873 | 13700 ft | 303 kts | 284° |
| 2026-05-08 03:01 | 34.65947 | -89.00330 | 13340 ft | 302 kts | 284° |
| 2026-05-08 03:01 | 34.66480 | -89.02782 | 12981 ft | 300 kts | 284° |
| 2026-05-08 03:01 | 34.67013 | -89.05225 | 12620 ft | 299 kts | 284° |
| 2026-05-08 03:01 | 34.67545 | -89.07671 | 12257 ft | 300 kts | 285° |
| 2026-05-08 03:02 | 34.68047 | -89.10126 | 11943 ft | 297 kts | 283° |
| 2026-05-08 03:02 | 34.68507 | -89.12523 | 11646 ft | 291 kts | 283° |
| 2026-05-08 03:02 | 34.68969 | -89.14915 | 11339 ft | 286 kts | 283° |
| 2026-05-08 03:02 | 34.69415 | -89.17229 | 11037 ft | 281 kts | 283° |
| 2026-05-08 03:03 | 34.69855 | -89.19507 | 10737 ft | 277 kts | 284° |
| 2026-05-08 03:03 | 34.70287 | -89.21752 | 10474 ft | 272 kts | 284° |
| 2026-05-08 03:03 | 34.70716 | -89.23981 | 10216 ft | 267 kts | 284° |
| 2026-05-08 03:03 | 34.71131 | -89.26147 | 9996 ft | 261 kts | 284° |
| 2026-05-08 03:04 | 34.71529 | -89.28226 | 9982 ft | 248 kts | 284° |
| 2026-05-08 03:04 | 34.71909 | -89.30237 | 9987 ft | 242 kts | 284° |
| 2026-05-08 03:04 | 34.72286 | -89.32237 | 9991 ft | 240 kts | 284° |
| 2026-05-08 03:04 | 34.72661 | -89.34210 | 9998 ft | 241 kts | 284° |
| 2026-05-08 03:05 | 34.73039 | -89.36207 | 9998 ft | 243 kts | 284° |
| 2026-05-08 03:05 | 34.73367 | -89.38211 | 9993 ft | 243 kts | 275° |
| 2026-05-08 03:05 | 34.73325 | -89.40259 | 9918 ft | 245 kts | 268° |
| 2026-05-08 03:05 | 34.73188 | -89.42323 | 9666 ft | 245 kts | 268° |
| 2026-05-08 03:06 | 34.73041 | -89.44392 | 9404 ft | 243 kts | 268° |
| 2026-05-08 03:06 | 34.72901 | -89.46429 | 9158 ft | 243 kts | 268° |
| 2026-05-08 03:06 | 34.72762 | -89.48472 | 8904 ft | 242 kts | 268° |
| 2026-05-08 03:06 | 34.72622 | -89.50500 | 8653 ft | 243 kts | 268° |
| 2026-05-08 03:07 | 34.72479 | -89.52576 | 8400 ft | 245 kts | 268° |
| 2026-05-08 03:07 | 34.72335 | -89.54623 | 8149 ft | 245 kts | 268° |
| 2026-05-08 03:07 | 34.72320 | -89.56666 | 7898 ft | 241 kts | 282° |
| 2026-05-08 03:07 | 34.72734 | -89.58621 | 7667 ft | 242 kts | 288° |
| 2026-05-08 03:08 | 34.73219 | -89.60583 | 7417 ft | 241 kts | 288° |
| 2026-05-08 03:08 | 34.73697 | -89.62537 | 7164 ft | 240 kts | 288° |
| 2026-05-08 03:08 | 34.74166 | -89.64466 | 6907 ft | 240 kts | 288° |
| 2026-05-08 03:08 | 34.74641 | -89.66419 | 6661 ft | 240 kts | 288° |
| 2026-05-08 03:09 | 34.75115 | -89.68375 | 6412 ft | 239 kts | 288° |
| 2026-05-08 03:09 | 34.75578 | -89.70312 | 6162 ft | 238 kts | 288° |
| 2026-05-08 03:09 | 34.76041 | -89.72244 | 5911 ft | 238 kts | 287° |
| 2026-05-08 03:09 | 34.76512 | -89.74191 | 5657 ft | 240 kts | 288° |
| 2026-05-08 03:10 | 34.76796 | -89.75356 | 5515 ft | 241 kts | 288° |
| 2026-05-08 03:10 | 34.77272 | -89.77323 | 5256 ft | 240 kts | 288° |
| 2026-05-08 03:10 | 34.77749 | -89.79275 | 5013 ft | 239 kts | 288° |
| 2026-05-08 03:10 | 34.78178 | -89.81038 | 4976 ft | 236 kts | 288° |
| 2026-05-08 03:11 | 34.78653 | -89.82967 | 4999 ft | 239 kts | 288° |
| 2026-05-08 03:11 | 34.79126 | -89.84918 | 4987 ft | 235 kts | 288° |
| 2026-05-08 03:11 | 34.79567 | -89.86755 | 4983 ft | 223 kts | 288° |
| 2026-05-08 03:11 | 34.79998 | -89.88547 | 4974 ft | 218 kts | 288° |
| 2026-05-08 03:12 | 34.80531 | -89.90256 | 4988 ft | 216 kts | 298° |
| 2026-05-08 03:12 | 34.81358 | -89.91805 | 4798 ft | 222 kts | 311° |
| 2026-05-08 03:12 | 34.82516 | -89.93101 | 4604 ft | 230 kts | 326° |
| 2026-05-08 03:12 | 34.83872 | -89.94093 | 4464 ft | 228 kts | 332° |
| 2026-05-08 03:13 | 34.85294 | -89.94852 | 4372 ft | 217 kts | 340° |
| 2026-05-08 03:13 | 34.86711 | -89.95443 | 4201 ft | 210 kts | 342° |
| 2026-05-08 03:13 | 34.88112 | -89.95935 | 3955 ft | 209 kts | 346° |
| 2026-05-08 03:13 | 34.89533 | -89.96288 | 3609 ft | 212 kts | 351° |
| 2026-05-08 03:14 | 34.91025 | -89.96520 | 3222 ft | 217 kts | 354° |
| 2026-05-08 03:14 | 34.92503 | -89.96700 | 2876 ft | 211 kts | 354° |
| 2026-05-08 03:14 | 34.93944 | -89.96891 | 2287 ft | 205 kts | 354° |
| 2026-05-08 03:14 | 34.95315 | -89.97063 | 1855 ft | 194 kts | 356° |
| 2026-05-08 03:15 | 34.96645 | -89.97139 | 1538 ft | 184 kts | 0° |
| 2026-05-08 03:15 | 34.97890 | -89.97147 | 1346 ft | 172 kts | 0° |
| 2026-05-08 03:15 | 34.99067 | -89.97155 | 1076 ft | 165 kts | 359° |
| 2026-05-08 03:15 | 35.00196 | -89.97199 | 810 ft | 158 kts | 359° |
| 2026-05-08 03:16 | 35.01282 | -89.97216 | 579 ft | 153 kts | 359° |
| 2026-05-08 03:16 | 35.02338 | -89.97239 | 391 ft | 152 kts | 359° |
| 2026-05-08 03:16 | 35.03317 | -89.97263 | 348 ft | 114 kts | 359° |
| 2026-05-08 03:16 | 35.03899 | -89.97273 | 347 ft | 56 kts | 359° |
| 2026-05-08 03:17 | 35.04176 | -89.97276 | 347 ft | 35 kts | 1° |
| 2026-05-08 03:17 | 35.04396 | -89.97214 | 347 ft | 21 kts | 28° |
| 2026-05-08 03:17 | 35.04509 | -89.97118 | 347 ft | 19 kts | 26° |
| 2026-05-08 03:17 | 35.04637 | -89.97065 | 347 ft | 19 kts | 4° |
| 2026-05-08 03:18 | 35.04778 | -89.97065 | 347 ft | 20 kts | 359° |
| 2026-05-08 03:18 | 35.04921 | -89.97068 | 347 ft | 21 kts | 359° |
| 2026-05-08 03:18 | 35.05070 | -89.97061 | 347 ft | 21 kts | 9° |
| 2026-05-08 03:18 | 35.05222 | -89.97028 | 347 ft | 22 kts | 8° |
| 2026-05-08 03:19 | 35.05357 | -89.97004 | 347 ft | 19 kts | 8° |
| 2026-05-08 03:19 | 35.05492 | -89.96978 | 347 ft | 19 kts | 9° |
| 2026-05-08 03:19 | 35.05630 | -89.96950 | 347 ft | 20 kts | 9° |
| 2026-05-08 03:19 | 35.05763 | -89.96925 | 347 ft | 17 kts | 8° |
| 2026-05-08 03:20 | 35.05876 | -89.96905 | 347 ft | 12 kts | 8° |
| 2026-05-08 03:20 | 35.05922 | -89.96837 | 347 ft | 11 kts | 82° |
| 2026-05-08 03:20 | 35.05918 | -89.96725 | 347 ft | 14 kts | 92° |
| 2026-05-08 03:20 | 35.05918 | -89.96601 | 347 ft | 13 kts | 71° |
| 2026-05-08 03:21 | 35.05987 | -89.96515 | 347 ft | 14 kts | 37° |
| 2026-05-08 03:21 | 35.06044 | -89.96429 | 347 ft | 13 kts | 81° |
| 2026-05-08 03:21 | 35.06042 | -89.96313 | 347 ft | 14 kts | 92° |
| 2026-05-08 03:21 | 35.06038 | -89.96197 | 347 ft | 10 kts | 92° |
| 2026-05-08 03:22 | 35.06036 | -89.96102 | 347 ft | 9 kts | 91° |
| 2026-05-08 03:22 | 35.06032 | -89.96069 | 347 ft | 1 kts | 123° |
| 2026-05-08 03:22 | 35.06020 | -89.96059 | 347 ft | 3 kts | 158° |
| 2026-05-08 03:22 | 35.05990 | -89.96055 | 347 ft | 2 kts | 180° |
| 2026-05-08 03:23 | 35.05975 | -89.96056 | 347 ft | 0 kts | 182° |
| 2026-05-08 03:23 | 35.05972 | -89.96056 | 347 ft | 0 kts | 182° |